sensor_id;sensor_type;location;lat;lon;timestamp;P1;durP1;ratioP1;P2;durP2;ratioP2
77602;SDS011;66771;52.434;17.056;2023-02-28T00:01:24;30.30;;;16.00;;
77602;SDS011;66771;52.434;17.056;2023-02-28T00:03:52;37.80;;;18.80;;
77602;SDS011;66771;52.434;17.056;2023-02-28T00:06:18;36.90;;;17.70;;
77602;SDS011;66771;52.434;17.056;2023-02-28T00:08:47;38.10;;;18.20;;
77602;SDS011;66771;52.434;17.056;2023-02-28T00:11:14;42.60;;;19.50;;
77602;SDS011;66771;52.434;17.056;2023-02-28T00:13:43;42.30;;;20.00;;
77602;SDS011;66771;52.434;17.056;2023-02-28T00:16:16;40.60;;;19.40;;
77602;SDS011;66771;52.434;17.056;2023-02-28T00:18:45;36.80;;;18.30;;
77602;SDS011;66771;52.434;17.056;2023-02-28T00:21:14;37.20;;;19.70;;
77602;SDS011;66771;52.434;17.056;2023-02-28T00:23:42;37.60;;;18.70;;
77602;SDS011;66771;52.434;17.056;2023-02-28T00:26:09;37.00;;;17.90;;
77602;SDS011;66771;52.434;17.056;2023-02-28T00:28:37;36.30;;;18.60;;
77602;SDS011;66771;52.434;17.056;2023-02-28T00:31:03;34.50;;;17.50;;
77602;SDS011;66771;52.434;17.056;2023-02-28T00:33:31;42.30;;;20.20;;
77602;SDS011;66771;52.434;17.056;2023-02-28T00:36:16;35.20;;;18.70;;
77602;SDS011;66771;52.434;17.056;2023-02-28T00:38:42;35.50;;;17.90;;
77602;SDS011;66771;52.434;17.056;2023-02-28T00:41:09;38.70;;;19.50;;
77602;SDS011;66771;52.434;17.056;2023-02-28T00:43:37;42.40;;;18.90;;
77602;SDS011;66771;52.434;17.056;2023-02-28T00:46:05;36.80;;;18.90;;
77602;SDS011;66771;52.434;17.056;2023-02-28T00:48:32;38.30;;;18.50;;
77602;SDS011;66771;52.434;17.056;2023-02-28T00:50:59;35.10;;;17.90;;
77602;SDS011;66771;52.434;17.056;2023-02-28T00:53:26;40.70;;;17.80;;
77602;SDS011;66771;52.434;17.056;2023-02-28T00:55:54;40.70;;;20.60;;
77602;SDS011;66771;52.434;17.056;2023-02-28T00:58:21;47.80;;;21.40;;
77602;SDS011;66771;52.434;17.056;2023-02-28T01:00:48;47.10;;;21.60;;
77602;SDS011;66771;52.434;17.056;2023-02-28T01:03:15;40.30;;;20.00;;
77602;SDS011;66771;52.434;17.056;2023-02-28T01:05:43;41.80;;;19.10;;
77602;SDS011;66771;52.434;17.056;2023-02-28T01:08:10;36.90;;;18.30;;
77602;SDS011;66771;52.434;17.056;2023-02-28T01:10:37;43.30;;;20.10;;
77602;SDS011;66771;52.434;17.056;2023-02-28T01:13:04;34.30;;;18.20;;
77602;SDS011;66771;52.434;17.056;2023-02-28T01:15:31;37.10;;;18.10;;
77602;SDS011;66771;52.434;17.056;2023-02-28T01:17:59;32.60;;;17.40;;
77602;SDS011;66771;52.434;17.056;2023-02-28T01:20:25;29.50;;;15.10;;
77602;SDS011;66771;52.434;17.056;2023-02-28T01:22:52;42.90;;;17.70;;
77602;SDS011;66771;52.434;17.056;2023-02-28T01:25:19;36.00;;;16.80;;
77602;SDS011;66771;52.434;17.056;2023-02-28T01:27:46;37.00;;;19.30;;
77602;SDS011;66771;52.434;17.056;2023-02-28T01:30:12;37.00;;;16.40;;
77602;SDS011;66771;52.434;17.056;2023-02-28T01:32:39;38.60;;;17.70;;
77602;SDS011;66771;52.434;17.056;2023-02-28T01:35:06;31.30;;;17.20;;
77602;SDS011;66771;52.434;17.056;2023-02-28T01:37:33;37.10;;;16.90;;
77602;SDS011;66771;52.434;17.056;2023-02-28T01:40:00;38.10;;;19.50;;
77602;SDS011;66771;52.434;17.056;2023-02-28T01:42:26;34.50;;;17.30;;
77602;SDS011;66771;52.434;17.056;2023-02-28T01:45:02;36.20;;;16.70;;
77602;SDS011;66771;52.434;17.056;2023-02-28T01:47:34;34.00;;;16.40;;
77602;SDS011;66771;52.434;17.056;2023-02-28T01:50:04;32.60;;;15.20;;
77602;SDS011;66771;52.434;17.056;2023-02-28T01:52:34;40.70;;;16.30;;
77602;SDS011;66771;52.434;17.056;2023-02-28T01:55:01;35.90;;;17.10;;
77602;SDS011;66771;52.434;17.056;2023-02-28T01:57:32;34.40;;;15.80;;
77602;SDS011;66771;52.434;17.056;2023-02-28T02:00:13;40.00;;;18.10;;
77602;SDS011;66771;52.434;17.056;2023-02-28T02:02:47;33.60;;;16.30;;
77602;SDS011;66771;52.434;17.056;2023-02-28T02:05:19;31.50;;;16.10;;
77602;SDS011;66771;52.434;17.056;2023-02-28T02:07:49;36.60;;;17.20;;
77602;SDS011;66771;52.434;17.056;2023-02-28T02:10:20;40.60;;;17.90;;
77602;SDS011;66771;52.434;17.056;2023-02-28T02:18:52;35.50;;;15.90;;
77602;SDS011;66771;52.434;17.056;2023-02-28T02:26:42;34.30;;;15.80;;
77602;SDS011;66771;52.434;17.056;2023-02-28T02:31:54;42.40;;;17.40;;
77602;SDS011;66771;52.434;17.056;2023-02-28T02:34:26;43.00;;;17.80;;
77602;SDS011;66771;52.434;17.056;2023-02-28T02:40:14;36.90;;;17.00;;
77602;SDS011;66771;52.434;17.056;2023-02-28T02:42:46;45.30;;;19.60;;
77602;SDS011;66771;52.434;17.056;2023-02-28T02:47:49;38.20;;;17.50;;
77602;SDS011;66771;52.434;17.056;2023-02-28T02:50:19;34.30;;;18.10;;
77602;SDS011;66771;52.434;17.056;2023-02-28T02:52:54;42.20;;;17.60;;
77602;SDS011;66771;52.434;17.056;2023-02-28T02:55:25;44.50;;;17.40;;
77602;SDS011;66771;52.434;17.056;2023-02-28T02:57:54;40.40;;;16.40;;
77602;SDS011;66771;52.434;17.056;2023-02-28T03:00:27;41.40;;;17.50;;
77602;SDS011;66771;52.434;17.056;2023-02-28T03:03:00;45.80;;;17.60;;
77602;SDS011;66771;52.434;17.056;2023-02-28T03:05:49;41.80;;;17.50;;
77602;SDS011;66771;52.434;17.056;2023-02-28T03:08:16;42.90;;;17.70;;
77602;SDS011;66771;52.434;17.056;2023-02-28T03:10:44;50.20;;;22.30;;
77602;SDS011;66771;52.434;17.056;2023-02-28T03:29:58;56.20;;;19.40;;
77602;SDS011;66771;52.434;17.056;2023-02-28T03:32:28;43.70;;;18.10;;
77602;SDS011;66771;52.434;17.056;2023-02-28T03:35:01;51.80;;;20.40;;
77602;SDS011;66771;52.434;17.056;2023-02-28T03:37:34;55.70;;;19.40;;
77602;SDS011;66771;52.434;17.056;2023-02-28T03:40:14;54.10;;;19.60;;
77602;SDS011;66771;52.434;17.056;2023-02-28T03:42:44;52.60;;;17.80;;
77602;SDS011;66771;52.434;17.056;2023-02-28T03:47:51;58.10;;;20.50;;
77602;SDS011;66771;52.434;17.056;2023-02-28T03:50:29;51.50;;;19.50;;
77602;SDS011;66771;52.434;17.056;2023-02-28T03:56:02;36.70;;;15.70;;
77602;SDS011;66771;52.434;17.056;2023-02-28T03:58:57;49.30;;;18.10;;
77602;SDS011;66771;52.434;17.056;2023-02-28T04:01:43;53.40;;;17.80;;
77602;SDS011;66771;52.434;17.056;2023-02-28T04:04:11;49.80;;;18.10;;
77602;SDS011;66771;52.434;17.056;2023-02-28T04:06:40;50.90;;;18.50;;
77602;SDS011;66771;52.434;17.056;2023-02-28T04:09:09;49.10;;;17.90;;
77602;SDS011;66771;52.434;17.056;2023-02-28T04:11:38;39.40;;;15.80;;
77602;SDS011;66771;52.434;17.056;2023-02-28T04:14:07;46.60;;;20.20;;
77602;SDS011;66771;52.434;17.056;2023-02-28T04:16:36;43.70;;;17.50;;
77602;SDS011;66771;52.434;17.056;2023-02-28T04:19:04;47.70;;;19.60;;
77602;SDS011;66771;52.434;17.056;2023-02-28T04:21:43;43.50;;;17.30;;
77602;SDS011;66771;52.434;17.056;2023-02-28T04:24:16;43.40;;;16.00;;
77602;SDS011;66771;52.434;17.056;2023-02-28T04:26:46;37.50;;;16.00;;
77602;SDS011;66771;52.434;17.056;2023-02-28T04:29:14;41.40;;;16.60;;
77602;SDS011;66771;52.434;17.056;2023-02-28T04:31:50;39.50;;;16.00;;
77602;SDS011;66771;52.434;17.056;2023-02-28T04:34:17;36.30;;;15.30;;
77602;SDS011;66771;52.434;17.056;2023-02-28T04:36:45;45.30;;;16.30;;
77602;SDS011;66771;52.434;17.056;2023-02-28T04:39:23;32.40;;;15.30;;
77602;SDS011;66771;52.434;17.056;2023-02-28T04:41:51;38.60;;;16.50;;
77602;SDS011;66771;52.434;17.056;2023-02-28T04:44:17;42.70;;;16.40;;
77602;SDS011;66771;52.434;17.056;2023-02-28T04:46:44;39.50;;;16.10;;
77602;SDS011;66771;52.434;17.056;2023-02-28T04:49:11;36.30;;;14.40;;
77602;SDS011;66771;52.434;17.056;2023-02-28T04:51:39;41.90;;;17.40;;
77602;SDS011;66771;52.434;17.056;2023-02-28T04:54:06;33.10;;;14.90;;
77602;SDS011;66771;52.434;17.056;2023-02-28T04:56:34;35.60;;;17.00;;
77602;SDS011;66771;52.434;17.056;2023-02-28T04:59:00;31.20;;;15.60;;
77602;SDS011;66771;52.434;17.056;2023-02-28T05:01:28;28.90;;;13.10;;
77602;SDS011;66771;52.434;17.056;2023-02-28T05:03:57;36.30;;;14.60;;
77602;SDS011;66771;52.434;17.056;2023-02-28T05:06:26;33.50;;;13.60;;
77602;SDS011;66771;52.434;17.056;2023-02-28T05:08:54;39.80;;;14.20;;
77602;SDS011;66771;52.434;17.056;2023-02-28T05:11:22;31.60;;;14.60;;
77602;SDS011;66771;52.434;17.056;2023-02-28T05:13:52;41.50;;;14.80;;
77602;SDS011;66771;52.434;17.056;2023-02-28T05:16:20;37.40;;;16.00;;
77602;SDS011;66771;52.434;17.056;2023-02-28T05:18:47;32.70;;;14.70;;
77602;SDS011;66771;52.434;17.056;2023-02-28T05:21:22;30.60;;;14.10;;
77602;SDS011;66771;52.434;17.056;2023-02-28T05:23:51;35.70;;;15.10;;
77602;SDS011;66771;52.434;17.056;2023-02-28T05:26:19;31.00;;;15.60;;
77602;SDS011;66771;52.434;17.056;2023-02-28T05:28:46;36.70;;;13.50;;
77602;SDS011;66771;52.434;17.056;2023-02-28T05:31:13;35.50;;;14.50;;
77602;SDS011;66771;52.434;17.056;2023-02-28T05:33:40;36.80;;;14.90;;
77602;SDS011;66771;52.434;17.056;2023-02-28T05:36:07;30.20;;;13.80;;
77602;SDS011;66771;52.434;17.056;2023-02-28T05:38:34;29.40;;;14.60;;
77602;SDS011;66771;52.434;17.056;2023-02-28T05:41:04;35.80;;;14.00;;
77602;SDS011;66771;52.434;17.056;2023-02-28T05:43:34;37.10;;;15.10;;
77602;SDS011;66771;52.434;17.056;2023-02-28T05:46:02;32.40;;;14.10;;
77602;SDS011;66771;52.434;17.056;2023-02-28T05:48:30;28.80;;;13.70;;
77602;SDS011;66771;52.434;17.056;2023-02-28T05:50:57;30.40;;;13.70;;
77602;SDS011;66771;52.434;17.056;2023-02-28T05:53:24;28.10;;;13.30;;
77602;SDS011;66771;52.434;17.056;2023-02-28T05:55:52;29.00;;;13.60;;
77602;SDS011;66771;52.434;17.056;2023-02-28T05:58:20;44.60;;;19.60;;
77602;SDS011;66771;52.434;17.056;2023-02-28T06:00:48;36.30;;;15.50;;
77602;SDS011;66771;52.434;17.056;2023-02-28T06:03:15;24.00;;;12.30;;
77602;SDS011;66771;52.434;17.056;2023-02-28T06:05:42;39.00;;;13.60;;
77602;SDS011;66771;52.434;17.056;2023-02-28T06:08:09;26.70;;;12.60;;
77602;SDS011;66771;52.434;17.056;2023-02-28T06:10:35;27.70;;;14.50;;
77602;SDS011;66771;52.434;17.056;2023-02-28T06:13:03;33.90;;;14.10;;
77602;SDS011;66771;52.434;17.056;2023-02-28T06:15:31;34.80;;;14.20;;
77602;SDS011;66771;52.434;17.056;2023-02-28T06:17:58;41.50;;;15.80;;
77602;SDS011;66771;52.434;17.056;2023-02-28T06:20:25;32.80;;;14.60;;
77602;SDS011;66771;52.434;17.056;2023-02-28T06:22:56;36.70;;;16.80;;
77602;SDS011;66771;52.434;17.056;2023-02-28T06:25:25;37.30;;;16.60;;
77602;SDS011;66771;52.434;17.056;2023-02-28T06:27:54;30.30;;;15.70;;
77602;SDS011;66771;52.434;17.056;2023-02-28T06:30:21;37.70;;;16.50;;
77602;SDS011;66771;52.434;17.056;2023-02-28T06:32:53;29.60;;;14.60;;
77602;SDS011;66771;52.434;17.056;2023-02-28T06:35:20;33.50;;;14.00;;
77602;SDS011;66771;52.434;17.056;2023-02-28T06:37:47;38.00;;;15.00;;
77602;SDS011;66771;52.434;17.056;2023-02-28T06:40:14;38.60;;;16.20;;
77602;SDS011;66771;52.434;17.056;2023-02-28T06:42:41;28.80;;;15.90;;
77602;SDS011;66771;52.434;17.056;2023-02-28T06:45:09;38.50;;;16.50;;
77602;SDS011;66771;52.434;17.056;2023-02-28T06:47:37;32.00;;;15.80;;
77602;SDS011;66771;52.434;17.056;2023-02-28T06:50:06;41.50;;;19.00;;
77602;SDS011;66771;52.434;17.056;2023-02-28T06:52:36;43.90;;;20.40;;
77602;SDS011;66771;52.434;17.056;2023-02-28T06:55:07;40.40;;;18.00;;
77602;SDS011;66771;52.434;17.056;2023-02-28T06:57:35;43.30;;;19.60;;
77602;SDS011;66771;52.434;17.056;2023-02-28T07:00:06;40.10;;;18.50;;
77602;SDS011;66771;52.434;17.056;2023-02-28T07:02:35;37.60;;;17.20;;
77602;SDS011;66771;52.434;17.056;2023-02-28T07:05:06;46.00;;;21.70;;
77602;SDS011;66771;52.434;17.056;2023-02-28T07:07:34;41.60;;;20.70;;
77602;SDS011;66771;52.434;17.056;2023-02-28T07:10:02;48.00;;;23.80;;
77602;SDS011;66771;52.434;17.056;2023-02-28T07:12:29;58.50;;;26.90;;
77602;SDS011;66771;52.434;17.056;2023-02-28T07:14:56;66.70;;;32.60;;
77602;SDS011;66771;52.434;17.056;2023-02-28T07:17:23;80.30;;;35.60;;
77602;SDS011;66771;52.434;17.056;2023-02-28T07:19:50;72.50;;;34.20;;
77602;SDS011;66771;52.434;17.056;2023-02-28T07:22:17;78.10;;;35.40;;
77602;SDS011;66771;52.434;17.056;2023-02-28T07:24:44;60.60;;;29.00;;
77602;SDS011;66771;52.434;17.056;2023-02-28T07:27:11;55.50;;;27.70;;
77602;SDS011;66771;52.434;17.056;2023-02-28T07:29:37;54.70;;;28.80;;
77602;SDS011;66771;52.434;17.056;2023-02-28T07:32:04;52.70;;;25.90;;
77602;SDS011;66771;52.434;17.056;2023-02-28T07:34:31;50.20;;;24.80;;
77602;SDS011;66771;52.434;17.056;2023-02-28T07:36:58;42.90;;;24.30;;
77602;SDS011;66771;52.434;17.056;2023-02-28T07:39:24;52.40;;;23.20;;
77602;SDS011;66771;52.434;17.056;2023-02-28T07:41:51;46.70;;;24.60;;
77602;SDS011;66771;52.434;17.056;2023-02-28T07:44:18;45.10;;;24.10;;
77602;SDS011;66771;52.434;17.056;2023-02-28T07:46:45;44.90;;;22.70;;
77602;SDS011;66771;52.434;17.056;2023-02-28T07:49:12;44.30;;;23.00;;
77602;SDS011;66771;52.434;17.056;2023-02-28T07:51:38;47.80;;;23.60;;
77602;SDS011;66771;52.434;17.056;2023-02-28T07:54:05;53.70;;;26.10;;
77602;SDS011;66771;52.434;17.056;2023-02-28T07:56:32;54.20;;;26.70;;
77602;SDS011;66771;52.434;17.056;2023-02-28T07:58:59;57.40;;;27.90;;
77602;SDS011;66771;52.434;17.056;2023-02-28T08:01:25;55.00;;;28.60;;
77602;SDS011;66771;52.434;17.056;2023-02-28T08:03:52;56.30;;;28.10;;
77602;SDS011;66771;52.434;17.056;2023-02-28T08:06:22;46.40;;;25.30;;
77602;SDS011;66771;52.434;17.056;2023-02-28T08:08:50;43.60;;;23.20;;
77602;SDS011;66771;52.434;17.056;2023-02-28T08:11:17;50.20;;;26.50;;
77602;SDS011;66771;52.434;17.056;2023-02-28T08:13:44;45.70;;;26.40;;
77602;SDS011;66771;52.434;17.056;2023-02-28T08:16:12;48.80;;;25.80;;
77602;SDS011;66771;52.434;17.056;2023-02-28T08:18:48;45.10;;;24.20;;
77602;SDS011;66771;52.434;17.056;2023-02-28T08:21:17;43.40;;;24.50;;
77602;SDS011;66771;52.434;17.056;2023-02-28T08:23:46;47.70;;;24.10;;
77602;SDS011;66771;52.434;17.056;2023-02-28T08:26:15;39.40;;;22.70;;
77602;SDS011;66771;52.434;17.056;2023-02-28T08:28:43;47.40;;;25.50;;
77602;SDS011;66771;52.434;17.056;2023-02-28T08:31:11;53.40;;;26.20;;
77602;SDS011;66771;52.434;17.056;2023-02-28T08:33:40;54.60;;;28.00;;
77602;SDS011;66771;52.434;17.056;2023-02-28T08:36:08;47.60;;;26.70;;
77602;SDS011;66771;52.434;17.056;2023-02-28T08:38:35;44.90;;;25.30;;
77602;SDS011;66771;52.434;17.056;2023-02-28T08:41:04;44.20;;;22.70;;
77602;SDS011;66771;52.434;17.056;2023-02-28T08:43:33;39.00;;;23.20;;
77602;SDS011;66771;52.434;17.056;2023-02-28T08:46:01;40.10;;;22.80;;
77602;SDS011;66771;52.434;17.056;2023-02-28T08:48:30;44.10;;;22.00;;
77602;SDS011;66771;52.434;17.056;2023-02-28T08:50:59;51.40;;;23.10;;
77602;SDS011;66771;52.434;17.056;2023-02-28T08:53:26;43.70;;;23.10;;
77602;SDS011;66771;52.434;17.056;2023-02-28T08:56:03;41.30;;;22.00;;
77602;SDS011;66771;52.434;17.056;2023-02-28T08:58:32;43.80;;;22.80;;
77602;SDS011;66771;52.434;17.056;2023-02-28T09:01:00;41.60;;;22.90;;
77602;SDS011;66771;52.434;17.056;2023-02-28T09:03:34;40.30;;;22.10;;
77602;SDS011;66771;52.434;17.056;2023-02-28T09:06:01;42.40;;;21.60;;
77602;SDS011;66771;52.434;17.056;2023-02-28T09:08:29;35.30;;;19.60;;
77602;SDS011;66771;52.434;17.056;2023-02-28T09:10:57;34.20;;;18.90;;
77602;SDS011;66771;52.434;17.056;2023-02-28T09:13:25;32.30;;;19.20;;
77602;SDS011;66771;52.434;17.056;2023-02-28T09:15:53;38.00;;;19.40;;
77602;SDS011;66771;52.434;17.056;2023-02-28T09:18:20;32.40;;;18.70;;
77602;SDS011;66771;52.434;17.056;2023-02-28T09:20:47;32.40;;;18.50;;
77602;SDS011;66771;52.434;17.056;2023-02-28T09:23:14;32.50;;;18.30;;
77602;SDS011;66771;52.434;17.056;2023-02-28T09:25:48;32.00;;;17.50;;
77602;SDS011;66771;52.434;17.056;2023-02-28T09:28:16;28.10;;;16.80;;
77602;SDS011;66771;52.434;17.056;2023-02-28T09:30:45;30.20;;;16.80;;
77602;SDS011;66771;52.434;17.056;2023-02-28T09:33:13;25.00;;;14.90;;
77602;SDS011;66771;52.434;17.056;2023-02-28T09:35:40;26.40;;;16.20;;
77602;SDS011;66771;52.434;17.056;2023-02-28T09:38:07;25.30;;;14.60;;
77602;SDS011;66771;52.434;17.056;2023-02-28T09:40:45;23.70;;;13.90;;
77602;SDS011;66771;52.434;17.056;2023-02-28T09:43:16;27.10;;;14.50;;
77602;SDS011;66771;52.434;17.056;2023-02-28T09:45:52;29.50;;;17.30;;
77602;SDS011;66771;52.434;17.056;2023-02-28T09:48:26;29.00;;;16.60;;
77602;SDS011;66771;52.434;17.056;2023-02-28T09:51:03;32.80;;;17.30;;
77602;SDS011;66771;52.434;17.056;2023-02-28T09:53:36;29.80;;;16.30;;
77602;SDS011;66771;52.434;17.056;2023-02-28T09:56:10;24.10;;;15.00;;
77602;SDS011;66771;52.434;17.056;2023-02-28T10:01:24;23.70;;;13.90;;
77602;SDS011;66771;52.434;17.056;2023-02-28T10:06:48;24.90;;;14.40;;
77602;SDS011;66771;52.434;17.056;2023-02-28T10:09:24;26.00;;;15.40;;
77602;SDS011;66771;52.434;17.056;2023-02-28T10:11:54;27.70;;;15.60;;
77602;SDS011;66771;52.434;17.056;2023-02-28T10:14:28;23.90;;;14.90;;
77602;SDS011;66771;52.434;17.056;2023-02-28T10:19:46;27.90;;;15.70;;
77602;SDS011;66771;52.434;17.056;2023-02-28T10:22:44;25.80;;;15.20;;
77602;SDS011;66771;52.434;17.056;2023-02-28T10:25:34;30.50;;;14.60;;
77602;SDS011;66771;52.434;17.056;2023-02-28T10:28:13;28.20;;;14.80;;
77602;SDS011;66771;52.434;17.056;2023-02-28T10:30:42;25.90;;;13.90;;
77602;SDS011;66771;52.434;17.056;2023-02-28T10:33:31;23.50;;;13.30;;
77602;SDS011;66771;52.434;17.056;2023-02-28T10:36:03;22.20;;;11.50;;
77602;SDS011;66771;52.434;17.056;2023-02-28T10:38:36;17.40;;;10.20;;
77602;SDS011;66771;52.434;17.056;2023-02-28T10:43:38;15.30;;;8.40;;
77602;SDS011;66771;52.434;17.056;2023-02-28T10:48:40;15.00;;;9.40;;
77602;SDS011;66771;52.434;17.056;2023-02-28T10:51:25;15.00;;;8.60;;
77602;SDS011;66771;52.434;17.056;2023-02-28T10:54:01;17.80;;;9.50;;
77602;SDS011;66771;52.434;17.056;2023-02-28T10:56:29;12.60;;;8.20;;
77602;SDS011;66771;52.434;17.056;2023-02-28T10:58:57;17.50;;;9.20;;
77602;SDS011;66771;52.434;17.056;2023-02-28T11:01:35;14.00;;;6.60;;
77602;SDS011;66771;52.434;17.056;2023-02-28T11:04:02;10.50;;;6.60;;
77602;SDS011;66771;52.434;17.056;2023-02-28T11:06:42;11.60;;;6.60;;
77602;SDS011;66771;52.434;17.056;2023-02-28T11:14:47;13.00;;;7.10;;
77602;SDS011;66771;52.434;17.056;2023-02-28T11:19:50;11.50;;;6.50;;
77602;SDS011;66771;52.434;17.056;2023-02-28T11:22:20;10.50;;;6.50;;
77602;SDS011;66771;52.434;17.056;2023-02-28T11:24:51;11.90;;;6.00;;
77602;SDS011;66771;52.434;17.056;2023-02-28T11:29:57;10.90;;;6.30;;
77602;SDS011;66771;52.434;17.056;2023-02-28T11:32:29;8.70;;;6.10;;
77602;SDS011;66771;52.434;17.056;2023-02-28T11:37:35;12.90;;;7.20;;
77602;SDS011;66771;52.434;17.056;2023-02-28T11:40:12;12.60;;;7.10;;
77602;SDS011;66771;52.434;17.056;2023-02-28T11:48:42;15.20;;;7.70;;
77602;SDS011;66771;52.434;17.056;2023-02-28T11:51:26;12.30;;;7.50;;
77602;SDS011;66771;52.434;17.056;2023-02-28T11:54:03;15.60;;;8.10;;
77602;SDS011;66771;52.434;17.056;2023-02-28T11:56:49;13.00;;;7.90;;
77602;SDS011;66771;52.434;17.056;2023-02-28T12:16:53;14.60;;;7.50;;
77602;SDS011;66771;52.434;17.056;2023-02-28T12:19:25;13.20;;;7.90;;
77602;SDS011;66771;52.434;17.056;2023-02-28T12:22:03;10.40;;;6.70;;
77602;SDS011;66771;52.434;17.056;2023-02-28T12:24:58;15.10;;;6.80;;
77602;SDS011;66771;52.434;17.056;2023-02-28T12:27:48;13.50;;;7.80;;
77602;SDS011;66771;52.434;17.056;2023-02-28T12:35:56;13.30;;;7.20;;
77602;SDS011;66771;52.434;17.056;2023-02-28T12:43:42;14.10;;;8.50;;
77602;SDS011;66771;52.434;17.056;2023-02-28T12:46:20;12.70;;;7.70;;
77602;SDS011;66771;52.434;17.056;2023-02-28T12:49:10;12.20;;;7.80;;
77602;SDS011;66771;52.434;17.056;2023-02-28T12:51:42;12.20;;;8.00;;
77602;SDS011;66771;52.434;17.056;2023-02-28T12:57:18;13.00;;;7.50;;
77602;SDS011;66771;52.434;17.056;2023-02-28T13:00:05;13.50;;;7.70;;
77602;SDS011;66771;52.434;17.056;2023-02-28T13:10:47;16.80;;;8.80;;
77602;SDS011;66771;52.434;17.056;2023-02-28T13:13:25;14.60;;;7.90;;
77602;SDS011;66771;52.434;17.056;2023-02-28T13:16:08;14.70;;;8.70;;
77602;SDS011;66771;52.434;17.056;2023-02-28T13:18:44;14.50;;;8.30;;
77602;SDS011;66771;52.434;17.056;2023-02-28T13:21:23;15.00;;;8.90;;
77602;SDS011;66771;52.434;17.056;2023-02-28T13:24:00;15.30;;;9.00;;
77602;SDS011;66771;52.434;17.056;2023-02-28T13:34:32;13.70;;;8.70;;
77602;SDS011;66771;52.434;17.056;2023-02-28T13:39:55;13.90;;;8.70;;
77602;SDS011;66771;52.434;17.056;2023-02-28T13:45:23;11.00;;;7.80;;
77602;SDS011;66771;52.434;17.056;2023-02-28T13:47:58;16.70;;;10.40;;
77602;SDS011;66771;52.434;17.056;2023-02-28T14:01:02;17.80;;;10.20;;
77602;SDS011;66771;52.434;17.056;2023-02-28T14:08:54;19.10;;;10.80;;
77602;SDS011;66771;52.434;17.056;2023-02-28T14:11:29;16.10;;;10.30;;
77602;SDS011;66771;52.434;17.056;2023-02-28T14:14:01;14.80;;;9.70;;
77602;SDS011;66771;52.434;17.056;2023-02-28T14:16:39;13.90;;;8.80;;
77602;SDS011;66771;52.434;17.056;2023-02-28T14:19:14;17.40;;;9.50;;
77602;SDS011;66771;52.434;17.056;2023-02-28T14:24:48;15.10;;;8.70;;
77602;SDS011;66771;52.434;17.056;2023-02-28T14:38:46;12.90;;;7.80;;
77602;SDS011;66771;52.434;17.056;2023-02-28T14:41:30;13.60;;;8.00;;
77602;SDS011;66771;52.434;17.056;2023-02-28T14:43:58;10.90;;;7.10;;
77602;SDS011;66771;52.434;17.056;2023-02-28T14:46:34;13.00;;;7.70;;
77602;SDS011;66771;52.434;17.056;2023-02-28T14:49:05;13.70;;;7.70;;
77602;SDS011;66771;52.434;17.056;2023-02-28T14:51:38;12.40;;;7.40;;
77602;SDS011;66771;52.434;17.056;2023-02-28T14:54:05;13.10;;;7.10;;
77602;SDS011;66771;52.434;17.056;2023-02-28T14:56:36;14.90;;;7.40;;
77602;SDS011;66771;52.434;17.056;2023-02-28T14:59:05;10.00;;;6.40;;
77602;SDS011;66771;52.434;17.056;2023-02-28T15:01:49;13.90;;;7.80;;
77602;SDS011;66771;52.434;17.056;2023-02-28T15:04:24;14.10;;;8.40;;
77602;SDS011;66771;52.434;17.056;2023-02-28T15:09:41;12.60;;;7.10;;
77602;SDS011;66771;52.434;17.056;2023-02-28T15:12:07;13.50;;;7.40;;
77602;SDS011;66771;52.434;17.056;2023-02-28T15:14:42;14.40;;;7.70;;
77602;SDS011;66771;52.434;17.056;2023-02-28T15:17:14;13.60;;;7.90;;
77602;SDS011;66771;52.434;17.056;2023-02-28T15:19:50;12.60;;;7.80;;
77602;SDS011;66771;52.434;17.056;2023-02-28T15:22:20;12.40;;;6.90;;
77602;SDS011;66771;52.434;17.056;2023-02-28T15:25:02;12.90;;;7.90;;
77602;SDS011;66771;52.434;17.056;2023-02-28T15:27:32;14.70;;;7.80;;
77602;SDS011;66771;52.434;17.056;2023-02-28T15:30:06;13.60;;;7.70;;
77602;SDS011;66771;52.434;17.056;2023-02-28T15:32:36;14.90;;;8.10;;
77602;SDS011;66771;52.434;17.056;2023-02-28T15:40:28;15.50;;;7.70;;
77602;SDS011;66771;52.434;17.056;2023-02-28T15:43:07;10.40;;;6.60;;
77602;SDS011;66771;52.434;17.056;2023-02-28T15:45:47;16.70;;;7.30;;
77602;SDS011;66771;52.434;17.056;2023-02-28T15:48:17;17.50;;;7.70;;
77602;SDS011;66771;52.434;17.056;2023-02-28T15:50:46;16.50;;;8.00;;
77602;SDS011;66771;52.434;17.056;2023-02-28T15:53:17;15.40;;;7.30;;
77602;SDS011;66771;52.434;17.056;2023-02-28T15:58:48;15.20;;;8.40;;
77602;SDS011;66771;52.434;17.056;2023-02-28T16:01:25;15.50;;;9.30;;
77602;SDS011;66771;52.434;17.056;2023-02-28T16:04:06;15.90;;;8.10;;
77602;SDS011;66771;52.434;17.056;2023-02-28T16:06:47;14.20;;;7.50;;
77602;SDS011;66771;52.434;17.056;2023-02-28T16:09:31;20.40;;;9.10;;
77602;SDS011;66771;52.434;17.056;2023-02-28T16:12:02;16.20;;;8.90;;
77602;SDS011;66771;52.434;17.056;2023-02-28T16:14:29;17.40;;;8.50;;
77602;SDS011;66771;52.434;17.056;2023-02-28T16:17:02;18.60;;;9.40;;
77602;SDS011;66771;52.434;17.056;2023-02-28T16:19:31;15.00;;;8.60;;
77602;SDS011;66771;52.434;17.056;2023-02-28T16:21:58;16.40;;;8.90;;
77602;SDS011;66771;52.434;17.056;2023-02-28T16:24:25;14.00;;;8.20;;
77602;SDS011;66771;52.434;17.056;2023-02-28T16:26:52;21.00;;;9.90;;
77602;SDS011;66771;52.434;17.056;2023-02-28T16:29:26;19.40;;;10.60;;
77602;SDS011;66771;52.434;17.056;2023-02-28T16:31:58;33.50;;;15.30;;
77602;SDS011;66771;52.434;17.056;2023-02-28T16:34:26;33.40;;;15.70;;
77602;SDS011;66771;52.434;17.056;2023-02-28T16:36:53;32.10;;;16.00;;
77602;SDS011;66771;52.434;17.056;2023-02-28T16:39:20;35.70;;;16.90;;
77602;SDS011;66771;52.434;17.056;2023-02-28T16:41:47;37.00;;;17.10;;
77602;SDS011;66771;52.434;17.056;2023-02-28T16:44:21;38.20;;;17.10;;
77602;SDS011;66771;52.434;17.056;2023-02-28T16:46:54;37.20;;;16.80;;
77602;SDS011;66771;52.434;17.056;2023-02-28T16:49:21;33.90;;;15.80;;
77602;SDS011;66771;52.434;17.056;2023-02-28T16:51:49;35.80;;;16.00;;
77602;SDS011;66771;52.434;17.056;2023-02-28T16:54:15;25.10;;;12.80;;
77602;SDS011;66771;52.434;17.056;2023-02-28T16:56:44;31.20;;;14.10;;
77602;SDS011;66771;52.434;17.056;2023-02-28T16:59:12;29.30;;;14.50;;
77602;SDS011;66771;52.434;17.056;2023-02-28T17:01:48;47.50;;;19.80;;
77602;SDS011;66771;52.434;17.056;2023-02-28T17:04:15;37.10;;;19.40;;
77602;SDS011;66771;52.434;17.056;2023-02-28T17:06:42;39.00;;;18.80;;
77602;SDS011;66771;52.434;17.056;2023-02-28T17:09:14;48.40;;;20.80;;
77602;SDS011;66771;52.434;17.056;2023-02-28T17:11:43;46.40;;;21.40;;
77602;SDS011;66771;52.434;17.056;2023-02-28T17:14:10;45.20;;;21.30;;
77602;SDS011;66771;52.434;17.056;2023-02-28T17:16:38;42.40;;;19.60;;
77602;SDS011;66771;52.434;17.056;2023-02-28T17:19:06;48.40;;;20.20;;
77602;SDS011;66771;52.434;17.056;2023-02-28T17:21:38;41.10;;;17.90;;